Time,TemperatureF,DewpointF,PressureIn,WindDirection,WindDirectionDegrees,WindSpeedMPH,WindSpeedGustMPH,Humidity,HourlyPrecipIn,Conditions,Clouds,dailyrainin,SoftwareType,DateUTC
2014-02-10 00:02:00,9.1,5.5,30.25,West,259,7.0,12.0,85,0.00,,,0.00,Wunderground v.1.15,2014-02-10 05:02:00,
2014-02-10 00:04:00,9.1,5.5,30.25,West,259,6.0,12.0,85,0.00,,,0.00,Wunderground v.1.15,2014-02-10 05:04:00,
2014-02-10 00:06:00,9.1,5.5,30.25,WSW,250,6.0,12.0,85,0.00,,,0.00,Wunderground v.1.15,2014-02-10 05:06:00,
2014-02-10 00:08:00,9.0,5.4,30.25,West,260,6.0,12.0,85,0.00,,,0.00,Wunderground v.1.15,2014-02-10 05:08:00,
2014-02-10 00:14:00,8.9,5.3,30.25,WSW,249,6.0,12.0,85,0.00,,,0.00,Wunderground v.1.15,2014-02-10 05:14:00,
2014-02-10 00:18:00,8.9,5.3,30.25,WSW,248,6.0,12.0,85,0.00,,,0.00,Wunderground v.1.15,2014-02-10 05:18:00,
2014-02-10 00:24:00,8.7,5.1,30.25,West,269,7.0,12.0,85,0.00,,,0.00,Wunderground v.1.15,2014-02-10 05:24:00,
2014-02-10 00:30:00,8.3,4.7,30.25,West,274,6.0,12.0,85,0.00,,,0.00,Wunderground v.1.15,2014-02-10 05:30:00,
2014-02-10 00:36:00,8.1,4.5,30.25,West,280,5.0,12.0,85,0.00,,,0.00,Wunderground v.1.15,2014-02-10 05:36:00,
2014-02-10 00:42:00,7.7,4.1,30.25,West,271,6.0,12.0,85,0.00,,,0.00,Wunderground v.1.15,2014-02-10 05:42:00,
2014-02-10 00:48:00,7.2,3.6,30.25,West,264,6.0,12.0,85,0.00,,,0.00,Wunderground v.1.15,2014-02-10 05:48:00,
2014-02-10 00:54:00,6.6,3.0,30.25,WSW,253,5.0,12.0,85,0.00,,,0.00,Wunderground v.1.15,2014-02-10 05:54:00,
2014-02-10 01:00:00,6.2,2.7,30.25,West,260,4.0,4.0,85,0.00,,,0.00,Wunderground v.1.15,2014-02-10 06:00:00,
2014-02-10 01:06:00,5.1,1.6,30.26,WSW,242,3.0,12.0,85,0.00,,,0.00,Wunderground v.1.15,2014-02-10 06:06:00,
2014-02-10 01:12:00,5.0,1.7,30.26,WSW,248,3.0,12.0,86,0.00,,,0.00,Wunderground v.1.15,2014-02-10 06:12:00,
2014-02-10 01:18:00,4.6,1.3,30.25,WSW,250,3.0,12.0,86,0.00,,,0.00,Wunderground v.1.15,2014-02-10 06:18:00,
2014-02-10 01:24:00,2.8,-1.2,30.26,WSW,245,3.0,12.0,83,0.00,,,0.00,Wunderground v.1.15,2014-02-10 06:24:00,
2014-02-10 01:30:00,1.0,-3.0,30.26,West,274,2.0,12.0,83,0.00,,,0.00,Wunderground v.1.15,2014-02-10 06:30:00,
2014-02-10 01:36:00,0.2,-3.5,30.26,SW,233,2.0,12.0,84,0.00,,,0.00,Wunderground v.1.15,2014-02-10 06:36:00,
2014-02-10 01:42:00,-1.7,-5.6,30.26,WSW,243,1.0,12.0,83,0.00,,,0.00,Wunderground v.1.15,2014-02-10 06:42:00,
2014-02-10 01:48:00,-1.8,-5.0,30.26,WSW,239,2.0,12.0,86,0.00,,,0.00,Wunderground v.1.15,2014-02-10 06:48:00,
2014-02-10 01:54:00,-2.1,-5.0,30.26,SW,229,2.0,12.0,87,0.00,,,0.00,Wunderground v.1.15,2014-02-10 06:54:00,
2014-02-10 02:00:00,-2.8,-5.9,30.26,SW,233,2.0,12.0,86,0.00,,,0.00,Wunderground v.1.15,2014-02-10 07:00:00,
2014-02-10 02:06:00,-2.1,-4.8,30.26,SW,216,2.0,12.0,88,0.00,,,0.00,Wunderground v.1.15,2014-02-10 07:06:00,
2014-02-10 02:12:00,-0.6,-2.8,30.26,SSW,204,2.0,12.0,90,0.00,,,0.00,Wunderground v.1.15,2014-02-10 07:12:00,
2014-02-10 02:18:00,0.2,-2.3,30.26,SW,236,2.0,12.0,89,0.00,,,0.00,Wunderground v.1.15,2014-02-10 07:18:00,
2014-02-10 02:24:00,0.6,-2.1,30.26,WSW,243,2.0,12.0,88,0.00,,,0.00,Wunderground v.1.15,2014-02-10 07:24:00,
2014-02-10 02:30:00,0.3,-2.7,30.27,WSW,256,1.0,1.0,87,0.00,,,0.00,Wunderground v.1.15,2014-02-10 07:30:00,
2014-02-10 02:36:00,-1.1,-4.8,30.27,SW,224,1.0,12.0,84,0.00,,,0.00,Wunderground v.1.15,2014-02-10 07:36:00,
2014-02-10 02:42:00,-2.1,-5.5,30.27,SW,217,0.0,12.0,85,0.00,,,0.00,Wunderground v.1.15,2014-02-10 07:42:00,
2014-02-10 02:47:00,-1.5,-4.2,30.27,SW,218,0.0,12.0,88,0.00,,,0.00,Wunderground v.1.15,2014-02-10 07:47:00,
2014-02-10 02:54:00,-1.5,-4.4,30.27,SW,224,1.0,12.0,87,0.00,,,0.00,Wunderground v.1.15,2014-02-10 07:54:00,
2014-02-10 03:00:00,-1.9,-5.1,30.27,SW,224,2.0,12.0,86,0.00,,,0.00,Wunderground v.1.15,2014-02-10 08:00:00,
2014-02-10 03:06:00,-2.3,-5.5,30.27,SW,226,2.0,12.0,86,0.00,,,0.00,Wunderground v.1.15,2014-02-10 08:06:00,
2014-02-10 03:12:00,-2.6,-5.8,30.27,SW,221,1.0,12.0,86,0.00,,,0.00,Wunderground v.1.15,2014-02-10 08:12:00,
2014-02-10 03:18:00,-3.0,-6.1,30.27,SW,223,2.0,12.0,86,0.00,,,0.00,Wunderground v.1.15,2014-02-10 08:18:00,
2014-02-10 03:24:00,-3.0,-6.1,30.27,WSW,240,1.0,12.0,86,0.00,,,0.00,Wunderground v.1.15,2014-02-10 08:24:00,
2014-02-10 03:30:00,-3.1,-6.2,30.27,SSW,211,1.0,12.0,86,0.00,,,0.00,Wunderground v.1.15,2014-02-10 08:30:00,
2014-02-10 03:36:00,-3.2,-6.3,30.27,SW,224,1.0,12.0,86,0.00,,,0.00,Wunderground v.1.15,2014-02-10 08:36:00,
2014-02-10 03:42:00,-4.0,-7.6,30.27,SW,229,1.0,12.0,84,0.00,,,0.00,Wunderground v.1.15,2014-02-10 08:42:00,
2014-02-10 03:48:00,-3.4,-6.3,30.27,WSW,249,2.0,12.0,87,0.00,,,0.00,Wunderground v.1.15,2014-02-10 08:48:00,
2014-02-10 03:54:00,-4.3,-7.7,30.27,SW,233,3.0,12.0,85,0.00,,,0.00,Wunderground v.1.15,2014-02-10 08:54:00,
2014-02-10 04:00:00,-4.3,-7.4,30.27,SW,217,2.0,12.0,86,0.00,,,0.00,Wunderground v.1.15,2014-02-10 09:00:00,
2014-02-10 04:06:00,-3.9,-6.8,30.27,SW,225,2.0,12.0,87,0.00,,,0.00,Wunderground v.1.15,2014-02-10 09:06:00,
2014-02-10 04:12:00,-3.3,-6.0,30.27,SSW,211,2.0,12.0,88,0.00,,,0.00,Wunderground v.1.15,2014-02-10 09:12:00,
2014-02-10 04:18:00,-4.0,-7.6,30.28,SW,218,2.0,12.0,84,0.00,,,0.00,Wunderground v.1.15,2014-02-10 09:18:00,
2014-02-10 04:23:00,-4.3,-7.4,30.28,WSW,237,2.0,12.0,86,0.00,,,0.00,Wunderground v.1.15,2014-02-10 09:23:00,
2014-02-10 04:30:00,-3.7,-6.8,30.28,WSW,253,2.0,12.0,86,0.00,,,0.00,Wunderground v.1.15,2014-02-10 09:30:00,
2014-02-10 04:36:00,-4.6,-8.2,30.28,SW,221,2.0,12.0,84,0.00,,,0.00,Wunderground v.1.15,2014-02-10 09:36:00,
2014-02-10 04:42:00,-5.2,-8.6,30.28,SW,232,1.0,12.0,85,0.00,,,0.00,Wunderground v.1.15,2014-02-10 09:42:00,
2014-02-10 04:48:00,-5.2,-8.6,30.28,SW,216,1.0,12.0,85,0.00,,,0.00,Wunderground v.1.15,2014-02-10 09:48:00,
2014-02-10 04:54:00,-5.4,-8.7,30.28,SW,221,2.0,12.0,85,0.00,,,0.00,Wunderground v.1.15,2014-02-10 09:54:00,
2014-02-10 05:00:00,-6.3,-10.1,30.28,WSW,242,2.0,2.0,83,0.00,,,0.00,Wunderground v.1.15,2014-02-10 10:00:00,
2014-02-10 05:06:00,-6.2,-9.5,30.29,WSW,240,1.0,12.0,85,0.00,,,0.00,Wunderground v.1.15,2014-02-10 10:06:00,
2014-02-10 05:12:00,-5.9,-9.0,30.29,SW,226,1.0,12.0,86,0.00,,,0.00,Wunderground v.1.15,2014-02-10 10:12:00,
2014-02-10 05:18:00,-5.9,-9.0,30.29,SW,235,1.0,12.0,86,0.00,,,0.00,Wunderground v.1.15,2014-02-10 10:18:00,
2014-02-10 05:24:00,-5.7,-8.8,30.28,SW,229,1.0,12.0,86,0.00,,,0.00,Wunderground v.1.15,2014-02-10 10:24:00,
2014-02-10 05:29:00,-5.2,-8.1,30.28,SW,222,1.0,12.0,87,0.00,,,0.00,Wunderground v.1.15,2014-02-10 10:29:00,
2014-02-10 05:36:00,-4.8,-7.7,30.29,SW,219,1.0,12.0,87,0.00,,,0.00,Wunderground v.1.15,2014-02-10 10:36:00,
2014-02-10 05:42:00,-5.0,-8.4,30.29,SW,218,1.0,12.0,85,0.00,,,0.00,Wunderground v.1.15,2014-02-10 10:42:00,
2014-02-10 05:48:00,-5.2,-8.6,30.30,WSW,246,1.0,12.0,85,0.00,,,0.00,Wunderground v.1.15,2014-02-10 10:48:00,
2014-02-10 05:54:00,-5.8,-9.4,30.30,SW,225,1.0,12.0,84,0.00,,,0.00,Wunderground v.1.15,2014-02-10 10:54:00,
2014-02-10 06:00:00,-6.1,-9.4,30.30,SSW,212,0.0,12.0,85,0.00,,,0.00,Wunderground v.1.15,2014-02-10 11:00:00,
2014-02-10 06:06:00,-6.3,-9.9,30.30,SW,231,1.0,12.0,84,0.00,,,0.00,Wunderground v.1.15,2014-02-10 11:06:00,
2014-02-10 06:12:00,-6.7,-10.3,30.30,SW,219,1.0,12.0,84,0.00,,,0.00,Wunderground v.1.15,2014-02-10 11:12:00,
2014-02-10 06:18:00,-6.5,-9.8,30.31,SW,229,1.0,12.0,85,0.00,,,0.00,Wunderground v.1.15,2014-02-10 11:18:00,
2014-02-10 06:24:00,-6.3,-9.6,30.31,SW,231,1.0,12.0,85,0.00,,,0.00,Wunderground v.1.15,2014-02-10 11:24:00,
2014-02-10 06:30:00,-6.0,-9.1,30.31,SW,232,1.0,12.0,86,0.00,,,0.00,Wunderground v.1.15,2014-02-10 11:30:00,
2014-02-10 06:36:00,-6.4,-10.0,30.32,SW,223,2.0,12.0,84,0.00,,,0.00,Wunderground v.1.15,2014-02-10 11:36:00,
2014-02-10 06:41:00,-6.6,-9.9,30.32,SW,222,1.0,12.0,85,0.00,,,0.00,Wunderground v.1.15,2014-02-10 11:41:00,
2014-02-10 06:48:00,-6.6,-9.9,30.32,SW,219,1.0,12.0,85,0.00,,,0.00,Wunderground v.1.15,2014-02-10 11:48:00,
2014-02-10 06:54:00,-6.6,-9.9,30.32,SSW,209,1.0,12.0,85,0.00,,,0.00,Wunderground v.1.15,2014-02-10 11:54:00,
2014-02-10 07:00:00,-6.7,-10.0,30.32,WSW,249,1.0,12.0,85,0.00,,,0.00,Wunderground v.1.15,2014-02-10 12:00:00,
2014-02-10 07:06:00,-6.6,-9.9,30.32,SSW,210,1.0,12.0,85,0.00,,,0.00,Wunderground v.1.15,2014-02-10 12:06:00,
2014-02-10 07:11:00,-6.7,-10.3,30.32,SW,217,1.0,12.0,84,0.00,,,0.00,Wunderground v.1.15,2014-02-10 12:11:00,
2014-02-10 07:18:00,-5.7,-8.6,30.33,SSW,210,1.0,12.0,87,0.00,,,0.00,Wunderground v.1.15,2014-02-10 12:18:00,
2014-02-10 07:24:00,-4.8,-7.7,30.32,SW,223,1.0,12.0,87,0.00,,,0.00,Wunderground v.1.15,2014-02-10 12:24:00,
2014-02-10 07:30:00,-4.4,-7.3,30.32,SW,218,0.0,12.0,87,0.00,,,0.00,Wunderground v.1.15,2014-02-10 12:30:00,
2014-02-10 07:36:00,-4.2,-7.3,30.32,SSW,198,1.0,12.0,86,0.00,,,0.00,Wunderground v.1.15,2014-02-10 12:36:00,
2014-02-10 07:42:00,-4.1,-7.0,30.32,SSW,200,2.0,12.0,87,0.00,,,0.00,Wunderground v.1.15,2014-02-10 12:42:00,
2014-02-10 07:48:00,-3.9,-7.0,30.33,SW,235,2.0,12.0,86,0.00,,,0.00,Wunderground v.1.15,2014-02-10 12:48:00,
2014-02-10 07:54:00,-3.8,-6.9,30.33,SSW,198,2.0,12.0,86,0.00,,,0.00,Wunderground v.1.15,2014-02-10 12:54:00,
2014-02-10 08:00:00,-3.8,-7.2,30.34,SSW,197,2.0,12.0,85,0.00,,,0.00,Wunderground v.1.15,2014-02-10 13:00:00,
2014-02-10 08:06:00,-3.9,-7.0,30.34,WSW,243,3.0,12.0,86,0.00,,,0.00,Wunderground v.1.15,2014-02-10 13:06:00,
2014-02-10 08:11:00,-4.6,-8.4,30.34,NW,321,2.0,12.0,83,0.00,,,0.00,Wunderground v.1.15,2014-02-10 13:11:00,
2014-02-10 08:18:00,-7.0,-11.5,30.34,NNW,348,1.0,12.0,80,0.00,,,0.00,Wunderground v.1.15,2014-02-10 13:18:00,
2014-02-10 08:24:00,-7.3,-11.1,30.34,WSW,240,0.0,12.0,83,0.00,,,0.00,Wunderground v.1.15,2014-02-10 13:24:00,
2014-02-10 08:30:00,-7.1,-10.9,30.35,SSW,205,1.0,12.0,83,0.00,,,0.00,Wunderground v.1.15,2014-02-10 13:30:00,
2014-02-10 08:36:00,-7.1,-10.7,30.35,SSW,203,1.0,12.0,84,0.00,,,0.00,Wunderground v.1.15,2014-02-10 13:36:00,
2014-02-10 08:42:00,-6.5,-9.8,30.36,WSW,245,0.0,12.0,85,0.00,,,0.00,Wunderground v.1.15,2014-02-10 13:42:00,
2014-02-10 08:47:00,-6.2,-9.8,30.36,SW,233,1.0,12.0,84,0.00,,,0.00,Wunderground v.1.15,2014-02-10 13:47:00,
2014-02-10 08:54:00,-6.1,-9.9,30.36,SSW,205,0.0,12.0,83,0.00,,,0.00,Wunderground v.1.15,2014-02-10 13:54:00,
2014-02-10 09:00:00,-5.6,-9.2,30.36,WSW,256,0.0,12.0,84,0.00,,,0.00,Wunderground v.1.15,2014-02-10 14:00:00,
2014-02-10 09:06:00,-5.2,-8.6,30.36,WSW,252,0.0,12.0,85,0.00,,,0.00,Wunderground v.1.15,2014-02-10 14:06:00,
2014-02-10 09:12:00,-4.8,-8.2,30.36,West,265,0.0,12.0,85,0.00,,,0.00,Wunderground v.1.15,2014-02-10 14:12:00,
2014-02-10 09:18:00,-5.0,-8.6,30.36,WSW,237,1.0,12.0,84,0.00,,,0.00,Wunderground v.1.15,2014-02-10 14:18:00,
2014-02-10 09:24:00,-4.9,-8.5,30.36,SW,215,1.0,12.0,84,0.00,,,0.00,Wunderground v.1.15,2014-02-10 14:24:00,
2014-02-10 09:30:00,-4.5,-8.4,30.36,WSW,243,1.0,12.0,83,0.00,,,0.00,Wunderground v.1.15,2014-02-10 14:30:00,
2014-02-10 09:36:00,-4.3,-8.2,30.37,WSW,252,1.0,12.0,83,0.00,,,0.00,Wunderground v.1.15,2014-02-10 14:36:00,
2014-02-10 09:42:00,-3.9,-7.8,30.37,WSW,254,2.0,12.0,83,0.00,,,0.00,Wunderground v.1.15,2014-02-10 14:42:00,
2014-02-10 09:48:00,-3.4,-7.3,30.37,West,262,2.0,12.0,83,0.00,,,0.00,Wunderground v.1.15,2014-02-10 14:48:00,
2014-02-10 09:54:00,-3.0,-6.9,30.37,West,263,2.0,12.0,83,0.00,,,0.00,Wunderground v.1.15,2014-02-10 14:54:00,
2014-02-10 10:00:00,-2.6,-6.5,30.37,West,259,1.0,12.0,83,0.00,,,0.00,Wunderground v.1.15,2014-02-10 15:00:00,
2014-02-10 10:06:00,-2.3,-6.4,30.37,WSW,243,1.0,12.0,82,0.00,,,0.00,Wunderground v.1.15,2014-02-10 15:06:00,
2014-02-10 10:12:00,-1.7,-5.6,30.37,SW,232,2.0,12.0,83,0.00,,,0.00,Wunderground v.1.15,2014-02-10 15:12:00,
2014-02-10 10:18:00,-1.1,-5.0,30.37,WSW,240,2.0,12.0,83,0.00,,,0.00,Wunderground v.1.15,2014-02-10 15:18:00,
2014-02-10 10:24:00,-0.4,-4.3,30.37,WSW,253,2.0,12.0,83,0.00,,,0.00,Wunderground v.1.15,2014-02-10 15:24:00,
2014-02-10 10:30:00,0.2,-3.7,30.38,WSW,255,2.0,12.0,83,0.00,,,0.00,Wunderground v.1.15,2014-02-10 15:30:00,
2014-02-10 10:36:00,0.7,-3.3,30.38,WSW,249,2.0,12.0,83,0.00,,,0.00,Wunderground v.1.15,2014-02-10 15:36:00,
2014-02-10 10:42:00,1.3,-2.7,30.38,WSW,249,3.0,12.0,83,0.00,,,0.00,Wunderground v.1.15,2014-02-10 15:42:00,
2014-02-10 10:48:00,1.8,-2.2,30.38,WSW,257,3.0,12.0,83,0.00,,,0.00,Wunderground v.1.15,2014-02-10 15:48:00,
2014-02-10 10:54:00,2.3,-1.7,30.38,WSW,246,3.0,12.0,83,0.00,,,0.00,Wunderground v.1.15,2014-02-10 15:54:00,
2014-02-10 11:00:00,2.9,-1.1,30.38,WSW,249,3.0,3.0,83,0.00,,,0.00,Wunderground v.1.15,2014-02-10 16:00:00,
2014-02-10 11:06:00,3.3,-0.7,30.39,WSW,253,3.0,12.0,83,0.00,,,0.00,Wunderground v.1.15,2014-02-10 16:06:00,
2014-02-10 11:12:00,3.7,-0.1,30.39,WSW,258,5.0,12.0,84,0.00,,,0.00,Wunderground v.1.15,2014-02-10 16:12:00,
2014-02-10 11:18:00,4.0,0.2,30.39,WSW,248,5.0,12.0,84,0.00,,,0.00,Wunderground v.1.15,2014-02-10 16:18:00,
2014-02-10 11:23:00,4.3,0.5,30.39,West,266,5.0,12.0,84,0.00,,,0.00,Wunderground v.1.15,2014-02-10 16:23:00,
2014-02-10 11:30:00,4.7,0.9,30.39,WSW,256,5.0,12.0,84,0.00,,,0.00,Wunderground v.1.15,2014-02-10 16:30:00,
2014-02-10 11:36:00,5.0,1.2,30.39,WSW,256,5.0,12.0,84,0.00,,,0.00,Wunderground v.1.15,2014-02-10 16:36:00,
2014-02-10 11:42:00,5.3,1.5,30.39,WSW,252,5.0,12.0,84,0.00,,,0.00,Wunderground v.1.15,2014-02-10 16:42:00,
2014-02-10 11:48:00,5.6,1.8,30.39,West,274,5.0,12.0,84,0.00,,,0.00,Wunderground v.1.15,2014-02-10 16:48:00,
2014-02-10 11:54:00,5.8,2.0,30.39,West,264,5.0,12.0,84,0.00,,,0.00,Wunderground v.1.15,2014-02-10 16:54:00,
2014-02-10 12:00:00,6.0,2.2,30.39,West,269,5.0,5.0,84,0.00,,,0.00,Wunderground v.1.15,2014-02-10 17:00:00,
2014-02-10 12:06:00,6.1,2.3,30.39,West,274,5.0,12.0,84,0.00,,,0.00,Wunderground v.1.15,2014-02-10 17:06:00,
2014-02-10 12:12:00,6.2,2.4,30.39,West,267,5.0,12.0,84,0.00,,,0.00,Wunderground v.1.15,2014-02-10 17:12:00,
2014-02-10 12:18:00,6.4,2.6,30.39,WSW,253,4.0,12.0,84,0.00,,,0.00,Wunderground v.1.15,2014-02-10 17:18:00,
2014-02-10 12:24:00,6.7,2.9,30.39,West,263,4.0,12.0,84,0.00,,,0.00,Wunderground v.1.15,2014-02-10 17:24:00,
2014-02-10 12:30:00,7.0,2.9,30.38,West,273,5.0,5.0,83,0.00,,,0.00,Wunderground v.1.15,2014-02-10 17:30:00,
2014-02-10 12:36:00,7.2,3.1,30.38,West,266,4.0,12.0,83,0.00,,,0.00,Wunderground v.1.15,2014-02-10 17:36:00,
2014-02-10 12:42:00,7.6,3.8,30.38,West,260,4.0,12.0,84,0.00,,,0.00,Wunderground v.1.15,2014-02-10 17:42:00,
2014-02-10 12:48:00,8.1,4.0,30.38,West,262,5.0,12.0,83,0.00,,,0.00,Wunderground v.1.15,2014-02-10 17:48:00,
2014-02-10 12:54:00,8.3,4.2,30.38,West,269,6.0,12.0,83,0.00,,,0.00,Wunderground v.1.15,2014-02-10 17:54:00,
2014-02-10 13:00:00,8.7,4.6,30.38,WSW,251,6.0,12.0,83,0.00,,,0.00,Wunderground v.1.15,2014-02-10 18:00:00,
2014-02-10 13:06:00,9.2,4.8,30.38,SW,221,6.0,12.0,82,0.00,,,0.00,Wunderground v.1.15,2014-02-10 18:06:00,
2014-02-10 13:12:00,9.9,5.2,30.37,SW,229,7.0,12.0,81,0.00,,,0.00,Wunderground v.1.15,2014-02-10 18:12:00,
2014-02-10 13:18:00,10.2,5.0,30.37,WSW,250,7.0,12.0,79,0.00,,,0.00,Wunderground v.1.15,2014-02-10 18:18:00,
2014-02-10 13:24:00,10.5,5.0,30.37,WSW,253,6.0,12.0,78,0.00,,,0.00,Wunderground v.1.15,2014-02-10 18:24:00,
2014-02-10 13:30:00,10.8,4.7,30.37,West,260,6.0,12.0,76,0.00,,,0.00,Wunderground v.1.15,2014-02-10 18:30:00,
2014-02-10 13:36:00,11.0,4.9,30.37,WSW,256,6.0,12.0,76,0.00,,,0.00,Wunderground v.1.15,2014-02-10 18:36:00,
2014-02-10 13:42:00,11.3,4.6,30.36,WSW,247,7.0,12.0,74,0.00,,,0.00,Wunderground v.1.15,2014-02-10 18:42:00,
2014-02-10 13:48:00,11.5,4.5,30.36,WSW,253,7.0,12.0,73,0.00,,,0.00,Wunderground v.1.15,2014-02-10 18:48:00,
2014-02-10 13:54:00,11.6,4.9,30.36,WSW,255,7.0,12.0,74,0.00,,,0.00,Wunderground v.1.15,2014-02-10 18:54:00,
2014-02-10 14:00:00,11.6,4.6,30.36,WSW,255,6.0,12.0,73,0.00,,,0.00,Wunderground v.1.15,2014-02-10 19:00:00,
2014-02-10 14:06:00,11.7,4.7,30.36,WSW,252,6.0,12.0,73,0.00,,,0.00,Wunderground v.1.15,2014-02-10 19:06:00,
2014-02-10 14:12:00,11.7,4.4,30.35,West,266,6.0,12.0,72,0.00,,,0.00,Wunderground v.1.15,2014-02-10 19:12:00,
2014-02-10 14:18:00,11.8,4.8,30.36,West,267,6.0,12.0,73,0.00,,,0.00,Wunderground v.1.15,2014-02-10 19:18:00,
2014-02-10 14:24:00,12.0,5.0,30.36,WSW,253,5.0,12.0,73,0.00,,,0.00,Wunderground v.1.15,2014-02-10 19:24:00,
2014-02-10 14:30:00,12.2,5.2,30.36,WSW,255,5.0,12.0,73,0.00,,,0.00,Wunderground v.1.15,2014-02-10 19:30:00,
2014-02-10 14:36:00,12.2,4.9,30.35,WSW,255,5.0,12.0,72,0.00,,,0.00,Wunderground v.1.15,2014-02-10 19:36:00,
2014-02-10 14:42:00,12.3,5.0,30.36,West,267,6.0,12.0,72,0.00,,,0.00,Wunderground v.1.15,2014-02-10 19:42:00,
2014-02-10 14:48:00,12.4,5.1,30.36,WSW,257,6.0,12.0,72,0.00,,,0.00,Wunderground v.1.15,2014-02-10 19:48:00,
2014-02-10 14:54:00,12.4,5.1,30.36,West,269,6.0,12.0,72,0.00,,,0.00,Wunderground v.1.15,2014-02-10 19:54:00,
2014-02-10 15:00:00,12.5,5.5,30.36,West,274,5.0,5.0,73,0.00,,,0.00,Wunderground v.1.15,2014-02-10 20:00:00,
2014-02-10 15:06:00,12.6,5.0,30.36,WNW,285,5.0,12.0,71,0.00,,,0.00,Wunderground v.1.15,2014-02-10 20:06:00,
2014-02-10 15:12:00,12.6,5.0,30.36,West,281,6.0,8.0,71,0.00,,,0.00,Wunderground v.1.15,2014-02-10 20:12:00,
2014-02-10 15:18:00,12.3,4.7,30.36,West,281,7.0,12.0,71,0.00,,,0.00,Wunderground v.1.15,2014-02-10 20:18:00,
2014-02-10 15:24:00,12.1,4.5,30.36,West,279,6.0,12.0,71,0.00,,,0.00,Wunderground v.1.15,2014-02-10 20:24:00,
2014-02-10 15:30:00,11.8,4.8,30.37,West,277,6.0,12.0,73,0.00,,,0.00,Wunderground v.1.15,2014-02-10 20:30:00,
2014-02-10 15:36:00,11.5,4.5,30.37,West,269,6.0,12.0,73,0.00,,,0.00,Wunderground v.1.15,2014-02-10 20:36:00,
2014-02-10 15:42:00,11.4,4.4,30.36,West,272,6.0,12.0,73,0.00,,,0.00,Wunderground v.1.15,2014-02-10 20:42:00,
2014-02-10 15:48:00,11.3,4.6,30.36,West,270,5.0,12.0,74,0.00,,,0.00,Wunderground v.1.15,2014-02-10 20:48:00,
2014-02-10 15:54:00,11.2,4.2,30.36,West,267,4.0,12.0,73,0.00,,,0.00,Wunderground v.1.15,2014-02-10 20:54:00,
2014-02-10 16:00:00,11.0,4.3,30.36,West,266,4.0,12.0,74,0.00,,,0.00,Wunderground v.1.15,2014-02-10 21:00:00,
2014-02-10 16:06:00,10.9,3.9,30.36,WSW,257,4.0,12.0,73,0.00,,,0.00,Wunderground v.1.15,2014-02-10 21:06:00,
2014-02-10 16:12:00,10.6,3.6,30.37,WSW,248,4.0,12.0,73,0.00,,,0.00,Wunderground v.1.15,2014-02-10 21:12:00,
2014-02-10 16:18:00,10.5,3.6,30.36,WSW,256,5.0,12.0,73,0.00,,,0.00,Wunderground v.1.15,2014-02-10 21:18:00,
2014-02-10 16:24:00,10.4,3.5,30.37,WSW,257,5.0,12.0,73,0.00,,,0.00,Wunderground v.1.15,2014-02-10 21:24:00,
2014-02-10 16:30:00,10.1,3.2,30.37,West,259,5.0,12.0,73,0.00,,,0.00,Wunderground v.1.15,2014-02-10 21:30:00,
2014-02-10 16:36:00,9.7,3.1,30.37,WSW,257,5.0,12.0,74,0.00,,,0.00,Wunderground v.1.15,2014-02-10 21:36:00,
2014-02-10 16:42:00,9.5,2.9,30.37,WSW,253,4.0,12.0,74,0.00,,,0.00,Wunderground v.1.15,2014-02-10 21:42:00,
2014-02-10 16:48:00,8.9,2.3,30.37,WSW,255,4.0,12.0,74,0.00,,,0.00,Wunderground v.1.15,2014-02-10 21:48:00,
2014-02-10 16:53:00,8.2,1.6,30.38,WSW,255,3.0,12.0,74,0.00,,,0.00,Wunderground v.1.15,2014-02-10 21:53:00,
2014-02-10 17:00:00,7.7,1.1,30.38,WSW,255,3.0,3.0,74,0.00,,,0.00,Wunderground v.1.15,2014-02-10 22:00:00,
2014-02-10 17:06:00,7.0,0.2,30.38,WSW,243,2.0,12.0,73,0.00,,,0.00,Wunderground v.1.15,2014-02-10 22:06:00,
2014-02-10 17:12:00,6.3,-0.2,30.38,WSW,240,3.0,12.0,74,0.00,,,0.00,Wunderground v.1.15,2014-02-10 22:12:00,
2014-02-10 17:18:00,5.8,-0.4,30.39,SW,229,3.0,12.0,75,0.00,,,0.00,Wunderground v.1.15,2014-02-10 22:18:00,
2014-02-10 17:24:00,5.4,-0.8,30.39,SW,235,3.0,12.0,75,0.00,,,0.00,Wunderground v.1.15,2014-02-10 22:24:00,
2014-02-10 17:30:00,5.2,-1.0,30.39,SW,236,2.0,12.0,75,0.00,,,0.00,Wunderground v.1.15,2014-02-10 22:30:00,
2014-02-10 17:36:00,4.3,-2.2,30.38,WSW,241,2.0,12.0,74,0.00,,,0.00,Wunderground v.1.15,2014-02-10 22:36:00,
2014-02-10 17:42:00,3.4,-2.7,30.38,WSW,248,2.0,12.0,75,0.00,,,0.00,Wunderground v.1.15,2014-02-10 22:42:00,
2014-02-10 17:48:00,3.0,-2.9,30.39,SW,229,2.0,12.0,76,0.00,,,0.00,Wunderground v.1.15,2014-02-10 22:48:00,
2014-02-10 17:54:00,1.5,-4.6,30.39,SW,232,3.0,12.0,75,0.00,,,0.00,Wunderground v.1.15,2014-02-10 22:54:00,
2014-02-10 18:00:00,0.2,-5.3,30.39,SW,234,3.0,12.0,77,0.00,,,0.00,Wunderground v.1.15,2014-02-10 23:00:00,
2014-02-10 18:06:00,-0.4,-5.1,30.40,WSW,241,3.0,12.0,80,0.00,,,0.00,Wunderground v.1.15,2014-02-10 23:06:00,
2014-02-10 18:12:00,-1.2,-5.9,30.40,WSW,257,4.0,12.0,80,0.00,,,0.00,Wunderground v.1.15,2014-02-10 23:12:00,
2014-02-10 18:18:00,-1.6,-5.8,30.40,WSW,239,3.0,12.0,82,0.00,,,0.00,Wunderground v.1.15,2014-02-10 23:18:00,
2014-02-10 18:24:00,0.2,-3.5,30.40,WSW,249,3.0,12.0,84,0.00,,,0.00,Wunderground v.1.15,2014-02-10 23:24:00,
2014-02-10 18:30:00,-0.3,-4.2,30.40,SW,221,2.0,12.0,83,0.00,,,0.00,Wunderground v.1.15,2014-02-10 23:30:00,
2014-02-10 18:36:00,0.3,-3.9,30.41,WSW,238,3.0,12.0,82,0.00,,,0.00,Wunderground v.1.15,2014-02-10 23:36:00,
2014-02-10 18:42:00,0.5,-3.4,30.41,West,271,2.0,12.0,83,0.00,,,0.00,Wunderground v.1.15,2014-02-10 23:42:00,
2014-02-10 18:48:00,-1.3,-6.0,30.41,West,266,1.0,12.0,80,0.00,,,0.00,Wunderground v.1.15,2014-02-10 23:48:00,
2014-02-10 18:54:00,-2.4,-6.8,30.41,WSW,245,1.0,12.0,81,0.00,,,0.00,Wunderground v.1.15,2014-02-10 23:54:00,
2014-02-10 19:00:00,-3.7,-8.1,30.41,WSW,252,1.0,12.0,81,0.00,,,0.00,Wunderground v.1.15,2014-02-11 00:00:00,
2014-02-10 19:06:00,-4.1,-8.0,30.42,SSW,201,2.0,12.0,83,0.00,,,0.00,Wunderground v.1.15,2014-02-11 00:06:00,
2014-02-10 19:12:00,-2.3,-5.0,30.42,SW,214,2.0,12.0,88,0.00,,,0.00,Wunderground v.1.15,2014-02-11 00:12:00,
2014-02-10 19:18:00,-1.2,-4.4,30.42,SW,223,2.0,12.0,86,0.00,,,0.00,Wunderground v.1.15,2014-02-11 00:18:00,
2014-02-10 19:24:00,-0.6,-4.3,30.42,SW,214,2.0,12.0,84,0.00,,,0.00,Wunderground v.1.15,2014-02-11 00:24:00,
2014-02-10 19:30:00,-0.1,-3.5,30.43,SSW,210,2.0,12.0,85,0.00,,,0.00,Wunderground v.1.15,2014-02-11 00:30:00,
2014-02-10 19:36:00,0.2,-3.5,30.43,SSW,210,2.0,12.0,84,0.00,,,0.00,Wunderground v.1.15,2014-02-11 00:36:00,
2014-02-10 19:42:00,0.2,-3.7,30.43,SSW,210,2.0,12.0,83,0.00,,,0.00,Wunderground v.1.15,2014-02-11 00:42:00,
2014-02-10 19:48:00,0.3,-3.6,30.43,SW,219,2.0,12.0,83,0.00,,,0.00,Wunderground v.1.15,2014-02-11 00:48:00,
2014-02-10 19:54:00,0.0,-3.9,30.43,SW,229,1.0,12.0,83,0.00,,,0.00,Wunderground v.1.15,2014-02-11 00:54:00,
2014-02-10 20:00:00,-1.5,-6.4,30.43,WSW,238,1.0,12.0,79,0.00,,,0.00,Wunderground v.1.15,2014-02-11 01:00:00,
2014-02-10 20:06:00,-2.4,-6.8,30.43,SW,236,2.0,12.0,81,0.00,,,0.00,Wunderground v.1.15,2014-02-11 01:06:00,
2014-02-10 20:12:00,-1.6,-4.8,30.44,SSW,208,2.0,12.0,86,0.00,,,0.00,Wunderground v.1.15,2014-02-11 01:12:00,
2014-02-10 20:18:00,-0.9,-4.8,30.44,West,259,3.0,12.0,83,0.00,,,0.00,Wunderground v.1.15,2014-02-11 01:18:00,
2014-02-10 20:24:00,-0.8,-4.5,30.43,WSW,250,3.0,12.0,84,0.00,,,0.00,Wunderground v.1.15,2014-02-11 01:24:00,
2014-02-10 20:30:00,-2.5,-7.4,30.44,WSW,245,2.0,2.0,79,0.00,,,0.00,Wunderground v.1.15,2014-02-11 01:30:00,
2014-02-10 20:36:00,-4.3,-8.7,30.44,WSW,250,1.0,12.0,81,0.00,,,0.00,Wunderground v.1.15,2014-02-11 01:36:00,
2014-02-10 20:42:00,-5.6,-9.9,30.44,WSW,245,1.0,12.0,81,0.00,,,0.00,Wunderground v.1.15,2014-02-11 01:42:00,
2014-02-10 20:48:00,-6.1,-9.7,30.44,West,266,1.0,12.0,84,0.00,,,0.00,Wunderground v.1.15,2014-02-11 01:48:00,
2014-02-10 20:54:00,-6.3,-9.9,30.44,West,275,0.0,12.0,84,0.00,,,0.00,Wunderground v.1.15,2014-02-11 01:54:00,
2014-02-10 21:00:00,-7.0,-10.8,30.44,West,272,0.0,12.0,83,0.00,,,0.00,Wunderground v.1.15,2014-02-11 02:00:00,
2014-02-10 21:06:00,-6.4,-9.5,30.45,SSW,211,1.0,12.0,86,0.00,,,0.00,Wunderground v.1.15,2014-02-11 02:06:00,
2014-02-10 21:11:00,-6.8,-10.1,30.45,SW,224,1.0,12.0,85,0.00,,,0.00,Wunderground v.1.15,2014-02-11 02:11:00,
2014-02-10 21:18:00,-8.1,-11.9,30.45,WSW,243,2.0,12.0,83,0.00,,,0.00,Wunderground v.1.15,2014-02-11 02:18:00,
2014-02-10 21:24:00,-8.7,-12.0,30.45,SW,233,2.0,12.0,85,0.00,,,0.00,Wunderground v.1.15,2014-02-11 02:24:00,
2014-02-10 21:30:00,-7.4,-10.2,30.45,SW,226,1.0,12.0,87,0.00,,,0.00,Wunderground v.1.15,2014-02-11 02:30:00,
2014-02-10 21:36:00,-6.6,-9.5,30.45,SW,224,1.0,12.0,87,0.00,,,0.00,Wunderground v.1.15,2014-02-11 02:36:00,
2014-02-10 21:42:00,-6.6,-9.9,30.45,SSW,212,1.0,12.0,85,0.00,,,0.00,Wunderground v.1.15,2014-02-11 02:42:00,
2014-02-10 21:48:00,-6.9,-10.2,30.45,SW,225,1.0,12.0,85,0.00,,,0.00,Wunderground v.1.15,2014-02-11 02:48:00,
2014-02-10 21:54:00,-8.1,-11.9,30.45,WSW,243,2.0,12.0,83,0.00,,,0.00,Wunderground v.1.15,2014-02-11 02:54:00,
2014-02-10 22:00:00,-6.2,-8.8,30.45,WSW,250,3.0,12.0,88,0.00,,,0.00,Wunderground v.1.15,2014-02-11 03:00:00,
2014-02-10 22:06:00,-5.2,-8.6,30.45,SSW,209,4.0,12.0,85,0.00,,,0.00,Wunderground v.1.15,2014-02-11 03:06:00,
2014-02-10 22:12:00,-4.8,-7.7,30.45,SSW,203,3.0,12.0,87,0.00,,,0.00,Wunderground v.1.15,2014-02-11 03:12:00,
2014-02-10 22:18:00,-4.7,-8.1,30.46,SSW,203,1.0,12.0,85,0.00,,,0.00,Wunderground v.1.15,2014-02-11 03:18:00,
2014-02-10 22:24:00,-4.4,-7.5,30.46,SSW,209,2.0,12.0,86,0.00,,,0.00,Wunderground v.1.15,2014-02-11 03:24:00,
2014-02-10 22:30:00,-4.5,-7.9,30.46,SSW,208,3.0,12.0,85,0.00,,,0.00,Wunderground v.1.15,2014-02-11 03:30:00,
2014-02-10 22:36:00,-4.8,-8.2,30.45,SSW,196,3.0,12.0,85,0.00,,,0.00,Wunderground v.1.15,2014-02-11 03:36:00,
2014-02-10 22:42:00,-4.5,-7.6,30.45,SSW,210,2.0,12.0,86,0.00,,,0.00,Wunderground v.1.15,2014-02-11 03:42:00,
2014-02-10 22:48:00,-4.3,-7.4,30.45,WSW,243,1.0,12.0,86,0.00,,,0.00,Wunderground v.1.15,2014-02-11 03:48:00,
2014-02-10 22:54:00,-5.2,-8.8,30.45,WSW,248,1.0,12.0,84,0.00,,,0.00,Wunderground v.1.15,2014-02-11 03:54:00,
2014-02-10 23:00:00,-6.5,-10.6,30.45,WSW,248,0.0,12.0,82,0.00,,,0.00,Wunderground v.1.15,2014-02-11 04:00:00,
2014-02-10 23:06:00,-6.7,-10.3,30.45,WSW,248,0.0,12.0,84,0.00,,,0.00,Wunderground v.1.15,2014-02-11 04:06:00,
2014-02-10 23:12:00,-6.5,-9.8,30.46,WSW,253,0.0,12.0,85,0.00,,,0.00,Wunderground v.1.15,2014-02-11 04:12:00,
2014-02-10 23:18:00,-7.1,-10.7,30.46,WSW,253,1.0,12.0,84,0.00,,,0.00,Wunderground v.1.15,2014-02-11 04:18:00,
2014-02-10 23:24:00,-7.5,-11.1,30.46,WSW,240,1.0,12.0,84,0.00,,,0.00,Wunderground v.1.15,2014-02-11 04:24:00,
2014-02-10 23:30:00,-8.0,-11.5,30.46,SW,236,1.0,12.0,84,0.00,,,0.00,Wunderground v.1.15,2014-02-11 04:30:00,
2014-02-10 23:36:00,-7.7,-10.8,30.46,SSW,211,1.0,12.0,86,0.00,,,0.00,Wunderground v.1.15,2014-02-11 04:36:00,
2014-02-10 23:42:00,-6.6,-9.7,30.46,SW,226,1.0,12.0,86,0.00,,,0.00,Wunderground v.1.15,2014-02-11 04:42:00,
2014-02-10 23:48:00,-6.7,-10.0,30.46,SW,226,0.0,12.0,85,0.00,,,0.00,Wunderground v.1.15,2014-02-11 04:48:00,
2014-02-10 23:54:00,-8.2,-12.2,30.46,SW,226,0.0,12.0,82,0.00,,,0.00,Wunderground v.1.15,2014-02-11 04:54:00,